Time;durP1;ratioP1;P1;durP2;ratioP2;P2;SDS_P1;SDS_P2;PMS_P1;PMS_P2;Temp;Humidity;BMP_temperature;BMP_pressure;BME280_temperature;BME280_humidity;BME280_pressure;Samples;Min_cycle;Max_cycle;Signal;HPM_P1;HPM_P2
2021/01/10 00:02:02;;;;;;;;;;;;;;;1.07;70.61;101252.19;5011309;28;19925;-81
2021/01/10 00:04:29;;;;;;;;;;;;;;;1.10;70.80;101243.53;5014917;28;19983;-82
2021/01/10 00:06:55;;;;;;;;;;;;;;;1.11;70.09;101246.09;5005927;28;19925;-82
2021/01/10 00:09:21;;;;;;;;;;;;;;;1.11;69.86;101242.63;4994539;28;20607;-76
2021/01/10 00:11:48;;;;;;;;;;;;;;;1.07;70.38;101240.91;5035310;28;19931;-80
2021/01/10 00:14:14;;;;;;;;;;;;;;;1.06;70.69;101250.44;5027607;28;20681;-80
2021/01/10 00:16:40;;;;;;;;;;;;;;;1.10;70.78;101239.19;5036809;28;19960;-83
2021/01/10 00:19:07;;;;;;;;;;;;;;;1.16;70.38;101244.41;5037410;28;19929;-83
2021/01/10 00:23:37;;;;;;;;;;;;;;;1.25;69.64;101238.38;5047202;27;19929;-83
2021/01/10 00:26:58;;;;;;;11.13;7.60;;;;;;;1.23;69.71;101235.75;4999994;27;20563;-82
2021/01/10 00:29:24;;;;;;;14.88;9.75;;;;;;;1.24;70.70;101234.03;4998198;28;20049;-82
2021/01/10 00:31:52;;;;;;;19.33;12.35;;;;;;;1.26;71.70;101240.13;4998582;28;20058;-82
2021/01/10 00:34:19;;;;;;;21.05;13.50;;;;;;;1.22;72.57;101244.44;5000190;28;21190;-82
2021/01/10 00:36:50;;;;;;;22.27;14.57;;;;;;;1.09;73.67;101228.75;4995373;28;20054;-83
2021/01/10 00:39:19;;;;;;;24.10;15.10;;;;;;;1.15;74.31;101245.28;4996043;28;20085;-82
2021/01/10 00:41:46;;;;;;;23.10;14.75;;;;;;;1.13;75.01;101248.72;5011883;28;20054;-81
2021/01/10 00:44:12;;;;;;;22.88;14.65;;;;;;;1.08;74.74;101242.63;5010699;28;20101;-83
2021/01/10 00:46:38;;;;;;;23.88;14.10;;;;;;;1.03;75.00;101245.22;5002880;28;20070;-82
2021/01/10 00:49:05;;;;;;;23.10;14.23;;;;;;;0.96;75.15;101239.06;5000882;28;20050;-82
2021/01/10 00:51:31;;;;;;;21.58;13.60;;;;;;;0.95;75.18;101242.56;4997515;28;20080;-83
2021/01/10 00:53:58;;;;;;;19.67;12.68;;;;;;;0.89;75.15;101234.72;5002879;28;20456;-82
2021/01/10 00:56:24;;;;;;;19.40;12.52;;;;;;;0.96;75.02;101252.13;5002799;28;20038;-82
2021/01/10 00:58:54;;;;;;;18.95;11.70;;;;;;;0.93;74.94;101246.03;5014061;28;20125;-82
2021/01/10 01:01:20;;;;;;;20.65;11.98;;;;;;;0.92;74.56;101245.16;5014195;28;20052;-82
2021/01/10 01:03:48;;;;;;;19.70;12.18;;;;;;;0.90;74.50;101243.41;5001011;28;20042;-82
2021/01/10 01:06:16;;;;;;;18.90;12.25;;;;;;;0.89;74.94;101247.75;5007698;28;20163;-83
2021/01/10 01:08:43;;;;;;;20.75;13.43;;;;;;;0.88;74.75;101248.59;5004649;28;20416;-83
2021/01/10 01:11:10;;;;;;;22.20;13.55;;;;;;;0.87;75.30;101254.69;5002793;28;20046;-82
2021/01/10 01:13:37;;;;;;;20.35;12.77;;;;;;;0.85;75.65;101245.09;5005117;28;20627;-82
2021/01/10 01:16:07;;;;;;;21.67;13.00;;;;;;;0.84;75.67;101239.00;5002717;28;20061;-82
2021/01/10 01:18:34;;;;;;;20.33;12.82;;;;;;;0.83;75.82;101244.22;5015144;28;21355;-82
2021/01/10 01:21:01;;;;;;;18.05;11.98;;;;;;;0.80;75.56;101245.06;5002591;28;20050;-82
2021/01/10 01:23:28;;;;;;;21.27;12.77;;;;;;;0.82;75.52;101255.50;5002875;28;20074;-82
2021/01/10 01:25:54;;;;;;;21.48;13.23;;;;;;;0.81;75.70;101254.63;5001384;28;20046;-82
2021/01/10 01:28:20;;;;;;;22.10;12.93;;;;;;;0.83;76.04;101257.25;5006587;28;20555;-83
2021/01/10 01:30:47;;;;;;;17.80;11.63;;;;;;;0.81;75.16;101259.84;5009360;28;20058;-83
2021/01/10 01:33:13;;;;;;;17.70;11.45;;;;;;;0.82;75.27;101255.50;5010389;28;20545;-82
2021/01/10 01:35:40;;;;;;;19.08;12.40;;;;;;;0.79;75.36;101256.34;5014144;28;20476;-82
2021/01/10 01:38:06;;;;;;;19.45;11.77;;;;;;;0.82;74.95;101263.31;4997817;28;20058;-83
2021/01/10 01:40:32;;;;;;;17.90;11.00;;;;;;;0.80;75.00;101252.88;4998638;28;20068;-82
2021/01/10 01:42:59;;;;;;;21.05;12.30;;;;;;;0.80;75.09;101254.63;5000627;28;20054;-82
2021/01/10 01:45:25;;;;;;;20.23;12.60;;;;;;;0.81;75.49;101257.25;5007579;28;20050;-82
2021/01/10 01:47:53;;;;;;;17.67;12.02;;;;;;;0.79;76.17;101255.50;5002824;28;20069;-82
2021/01/10 01:50:20;;;;;;;19.50;12.13;;;;;;;0.76;75.83;101264.19;4985699;28;20123;-82
2021/01/10 01:52:46;;;;;;;19.85;11.75;;;;;;;0.77;75.62;101260.72;5000599;28;20050;-82
2021/01/10 01:55:13;;;;;;;17.92;11.55;;;;;;;0.79;75.71;101265.94;5007541;28;20058;-82
2021/01/10 01:57:39;;;;;;;18.95;10.90;;;;;;;0.76;75.81;101256.38;5009176;28;20054;-81
2021/01/10 02:00:07;;;;;;;20.20;11.52;;;;;;;0.69;75.68;101265.84;5004899;28;20533;-82
2021/01/10 02:02:33;;;;;;;19.33;11.90;;;;;;;0.65;76.25;101258.00;5006027;28;20050;-81
2021/01/10 02:05:08;;;;;;;19.30;11.68;;;;;;;0.65;76.61;101263.22;5012551;28;20039;-81
2021/01/10 02:07:38;;;;;;;18.88;11.18;;;;;;;0.63;76.23;101254.53;5006884;28;20123;-82
2021/01/10 02:10:10;;;;;;;20.42;12.45;;;;;;;0.63;76.35;101254.53;5014950;28;20080;-82
2021/01/10 02:12:49;;;;;;;22.60;12.70;;;;;;;0.62;76.85;101245.84;5018917;28;20041;-82
2021/01/10 02:15:19;;;;;;;20.65;11.98;;;;;;;0.63;76.88;101254.53;5019164;28;20062;-82
2021/01/10 02:17:50;;;;;;;19.85;12.30;;;;;;;0.55;77.26;101241.44;5014688;28;20053;-82
2021/01/10 02:20:28;;;;;;;19.25;11.98;;;;;;;0.60;77.32;101259.72;5022004;28;20116;-83
2021/01/10 02:23:01;;;;;;;19.95;11.85;;;;;;;0.58;77.43;101254.50;5004527;28;20339;-82
2021/01/10 02:25:29;;;;;;;18.30;10.90;;;;;;;0.60;76.99;101257.13;5003504;28;20445;-82
2021/01/10 02:27:57;;;;;;;16.75;10.70;;;;;;;0.63;76.70;101255.38;5002455;28;20110;-82
2021/01/10 02:30:26;;;;;;;18.33;11.27;;;;;;;0.64;76.86;101240.63;5004450;28;20050;-82
2021/01/10 02:33:01;;;;;;;14.20;9.50;;;;;;;0.64;75.92;101253.66;5011403;28;20050;-82
2021/01/10 02:35:31;;;;;;;13.52;8.77;;;;;;;0.63;74.52;101257.16;5014237;28;20090;-82
2021/01/10 02:38:13;;;;;;;10.00;6.75;;;;;;;0.61;74.20;101254.53;5014493;28;20034;-81
2021/01/10 02:40:53;;;;;;;11.98;8.45;;;;;;;0.63;72.67;101257.16;5011515;28;20110;-81
2021/01/10 02:43:26;;;;;;;11.02;7.57;;;;;;;0.59;72.01;101247.56;5000790;28;20121;-81
2021/01/10 02:45:59;;;;;;;10.95;8.05;;;;;;;0.62;72.27;101247.56;4991796;28;20050;-82
2021/01/10 02:48:26;;;;;;;13.60;8.43;;;;;;;0.63;72.07;101246.72;5000168;28;20053;-82
2021/01/10 02:51:10;;;;;;;12.68;7.72;;;;;;;0.66;72.35;101246.72;5010194;28;20105;-82
2021/01/10 02:53:37;;;;;;;14.10;8.25;;;;;;;0.67;72.72;101245.84;4996388;28;20054;-81
2021/01/10 02:56:05;;;;;;;12.40;8.57;;;;;;;0.76;72.57;101252.88;5019212;28;20108;-82
2021/01/10 02:58:35;;;;;;;14.48;8.30;;;;;;;0.77;72.42;101250.28;5013927;28;20050;-82
2021/01/10 03:01:05;;;;;;;12.90;8.20;;;;;;;0.75;73.14;101253.75;5008770;28;20070;-82
2021/01/10 03:03:32;;;;;;;13.00;8.40;;;;;;;0.72;73.25;101251.09;5009830;28;20074;-82
2021/01/10 03:06:01;;;;;;;13.13;9.07;;;;;;;0.70;72.79;101251.09;5006353;28;20091;-82
2021/01/10 03:08:28;;;;;;;15.13;9.20;;;;;;;0.65;72.57;101247.56;5026941;28;20056;-82
2021/01/10 03:10:56;;;;;;;13.25;8.40;;;;;;;0.62;72.56;101250.19;4994119;28;20409;-83
2021/01/10 03:13:22;;;;;;;12.38;8.20;;;;;;;0.62;72.25;101247.56;4996360;28;20042;-82
2021/01/10 03:15:50;;;;;;;12.10;7.75;;;;;;;0.58;72.45;101248.41;4992331;28;20047;-82
2021/01/10 03:18:19;;;;;;;12.73;8.20;;;;;;;0.58;72.24;101240.59;5013426;28;20046;-82
2021/01/10 03:20:47;;;;;;;11.73;7.70;;;;;;;0.55;72.30;101244.03;4990828;28;20050;-82
2021/01/10 03:23:13;;;;;;;14.60;8.40;;;;;;;0.51;72.28;101236.19;4991215;28;20185;-82
2021/01/10 03:25:42;;;;;;;12.50;8.25;;;;;;;0.46;72.61;101235.28;4995286;28;20482;-82
2021/01/10 03:28:08;;;;;;;11.90;7.70;;;;;;;0.43;72.57;101240.47;4995109;28;20054;-82
2021/01/10 03:30:35;;;;;;;11.00;7.53;;;;;;;0.39;73.06;101243.91;4995246;28;20046;-82
2021/01/10 03:33:03;;;;;;;12.43;7.85;;;;;;;0.44;73.63;101255.25;5022707;28;20046;-82
2021/01/10 03:35:30;;;;;;;12.60;7.70;;;;;;;0.45;73.59;101254.41;5005356;28;20042;-82
2021/01/10 03:37:58;;;;;;;11.30;7.70;;;;;;;0.51;73.36;101257.91;5011792;28;20110;-81
2021/01/10 03:40:26;;;;;;;12.25;7.93;;;;;;;0.52;73.12;101256.16;4998266;28;20049;-82
2021/01/10 03:42:52;;;;;;;12.52;8.10;;;;;;;0.42;73.06;101255.25;5021772;28;20052;-81
2021/01/10 03:45:19;;;;;;;13.35;8.48;;;;;;;0.30;73.77;101250.81;5030879;28;20050;-81
2021/01/10 03:47:45;;;;;;;13.95;8.18;;;;;;;0.24;74.26;101253.34;5009424;28;20058;-82
2021/01/10 03:50:12;;;;;;;13.18;8.57;;;;;;;0.23;74.31;101250.72;4992763;28;20050;-82
2021/01/10 03:52:38;;;;;;;13.82;8.50;;;;;;;0.24;74.59;101245.53;5030002;28;20054;-81
2021/01/10 03:55:06;;;;;;;12.70;8.30;;;;;;;0.25;74.46;101247.28;5016261;28;20046;-81
2021/01/10 03:57:36;;;;;;;13.13;8.45;;;;;;;0.26;74.61;101243.81;5031222;28;20120;-82
2021/01/10 04:00:08;;;;;;;12.77;6.57;;;;;;;0.34;74.50;101242.13;4993858;28;20397;-83
2021/01/10 04:02:35;;;;;;;14.93;8.68;;;;;;;0.40;74.49;101241.31;4997656;28;20519;-82
2021/01/10 04:05:03;;;;;;;14.63;8.90;;;;;;;0.42;74.68;101252.63;5004507;28;20046;-81
2021/01/10 04:07:30;;;;;;;14.50;9.18;;;;;;;0.38;74.47;101257.78;5025224;28;20093;-81
2021/01/10 04:09:58;;;;;;;15.68;9.82;;;;;;;0.37;75.04;101250.84;5020213;28;20046;-82
2021/01/10 04:12:25;;;;;;;15.45;9.73;;;;;;;0.35;75.22;101259.50;5008467;28;20046;-83
2021/01/10 04:14:55;;;;;;;17.02;10.02;;;;;;;0.41;75.57;101257.81;4997791;28;20458;-82
2021/01/10 04:17:25;;;;;;;18.00;11.20;;;;;;;0.39;75.49;101255.22;5011211;28;20066;-82
2021/01/10 04:19:53;;;;;;;16.58;10.77;;;;;;;0.40;75.58;101254.34;4995267;28;20057;-82
2021/01/10 04:22:21;;;;;;;18.40;11.43;;;;;;;0.35;76.20;101251.69;5001970;28;20038;-83
2021/01/10 04:24:48;;;;;;;18.10;10.75;;;;;;;0.26;76.43;101246.44;5012259;28;20057;-82
2021/01/10 04:27:15;;;;;;;18.02;11.32;;;;;;;0.34;76.37;101246.47;5009738;28;20370;-82
2021/01/10 04:29:41;;;;;;;18.10;11.20;;;;;;;0.32;76.43;101242.97;4994741;28;20050;-82
2021/01/10 04:32:08;;;;;;;18.63;10.90;;;;;;;0.24;76.39;101235.13;4995406;28;20053;-82
2021/01/10 04:34:35;;;;;;;18.50;10.77;;;;;;;0.23;76.67;101243.78;5005561;28;20109;-82
2021/01/10 04:37:01;;;;;;;19.25;10.93;;;;;;;0.18;76.66;101237.66;5026042;28;20080;-82
2021/01/10 04:39:28;;;;;;;18.48;11.18;;;;;;;0.15;76.84;101235.06;4994273;28;20500;-81
2021/01/10 04:41:55;;;;;;;18.35;10.63;;;;;;;0.17;76.94;101242.84;4992683;28;20051;-83
2021/01/10 04:44:26;;;;;;;17.88;10.60;;;;;;;0.16;76.89;101249.78;4990013;28;20093;-82
2021/01/10 04:46:52;;;;;;;18.27;11.10;;;;;;;0.15;76.54;101240.25;4994164;28;20046;-83
2021/01/10 04:49:19;;;;;;;17.95;11.30;;;;;;;0.12;77.10;101236.75;4994751;28;20134;-82
2021/01/10 04:51:49;;;;;;;19.25;11.60;;;;;;;0.17;78.10;101251.53;4998813;28;20053;-82
2021/01/10 04:54:16;;;;;;;19.50;11.13;;;;;;;0.15;77.64;101242.00;5005371;28;20039;-82
2021/01/10 04:56:43;;;;;;;18.55;10.70;;;;;;;0.17;77.80;101242.84;5016482;28;20094;-82
2021/01/10 04:59:10;;;;;;;18.02;10.85;;;;;;;0.21;77.66;101242.03;5008229;28;20050;-82
2021/01/10 05:01:52;;;;;;;17.20;10.65;;;;;;;0.22;77.56;101251.59;4996006;28;20054;-82
2021/01/10 05:04:19;;;;;;;16.23;10.85;;;;;;;0.27;77.30;101256.00;5001140;28;20066;-82
2021/01/10 05:06:46;;;;;;;17.27;10.60;;;;;;;0.28;77.29;101255.13;5026620;28;20043;-82
2021/01/10 05:09:13;;;;;;;19.77;10.50;;;;;;;0.27;77.48;101250.78;5004862;28;20046;-82
2021/01/10 05:11:40;;;;;;;19.25;11.15;;;;;;;0.23;77.73;101249.00;5001245;28;20489;-83
2021/01/10 05:14:07;;;;;;;17.67;10.82;;;;;;;0.27;77.56;101247.31;5004442;28;20056;-83
2021/01/10 05:16:34;;;;;;;18.67;11.38;;;;;;;0.23;77.76;101241.19;4998502;28;20125;-82
2021/01/10 05:19:03;;;;;;;18.45;11.68;;;;;;;0.21;78.19;101245.50;5000649;28;20043;-82
2021/01/10 05:21:30;;;;;;;17.02;10.40;;;;;;;0.18;77.62;101242.88;4986288;28;20042;-82
2021/01/10 05:23:58;;;;;;;19.58;10.90;;;;;;;0.15;78.38;101242.00;5001750;28;20046;-82
2021/01/10 05:26:36;;;;;;;15.52;10.60;;;;;;;0.10;78.54;101252.34;5002357;28;20046;-82
2021/01/10 05:29:08;;;;;;;18.13;10.82;;;;;;;0.08;78.84;101248.88;5024472;28;20050;-82
2021/01/10 05:31:41;;;;;;;16.65;10.75;;;;;;;0.11;78.81;101253.22;4999663;28;20097;-82
2021/01/10 05:34:16;;;;;;;18.23;11.02;;;;;;;0.15;78.65;101255.88;4998420;28;20422;-82
2021/01/10 05:36:43;;;;;;;17.13;10.60;;;;;;;0.17;78.04;101254.13;4989327;28;20050;-82
2021/01/10 05:39:22;;;;;;;18.30;10.63;;;;;;;0.09;78.22;101248.00;5007177;28;20054;-81
2021/01/10 05:42:03;;;;;;;17.05;10.50;;;;;;;0.01;78.16;101249.66;5010780;28;20118;-82
2021/01/10 05:44:51;;;;;;;19.83;11.30;;;;;;;0.04;78.94;101252.28;5009054;28;20041;-82
2021/01/10 05:47:19;;;;;;;18.73;10.60;;;;;;;0.07;78.90;101243.63;5002495;28;20069;-83
2021/01/10 05:49:50;;;;;;;17.08;10.32;;;;;;;0.13;78.73;101255.00;5011330;28;20058;-82
2021/01/10 05:52:17;;;;;;;19.30;11.05;;;;;;;0.16;78.08;101244.56;5002993;28;20054;-82
2021/01/10 05:54:48;;;;;;;17.30;10.50;;;;;;;0.14;78.36;101256.75;5006762;28;20069;-82
2021/01/10 05:57:25;;;;;;;16.63;9.93;;;;;;;0.10;78.60;101252.34;5015034;28;20070;-82
2021/01/10 05:59:52;;;;;;;18.08;10.20;;;;;;;0.03;78.88;101245.34;5000589;28;20057;-82
2021/01/10 06:02:29;;;;;;;17.13;10.10;;;;;;;0.04;78.93;101247.06;4999889;28;20056;-83
2021/01/10 06:05:11;;;;;;;18.05;10.70;;;;;;;0.10;78.93;101257.56;4999737;28;20046;-82
2021/01/10 06:07:39;;;;;;;17.27;10.88;;;;;;;0.13;78.42;101257.59;4997990;28;20085;-82
2021/01/10 06:10:07;;;;;;;17.13;10.93;;;;;;;0.15;78.55;101260.22;4998622;28;20115;-82
2021/01/10 06:12:35;;;;;;;17.30;10.95;;;;;;;0.19;78.94;101257.63;4997860;28;20085;-83
2021/01/10 06:15:12;;;;;;;16.65;10.73;;;;;;;0.16;78.50;101252.38;5003451;28;20048;-83
2021/01/10 06:17:49;;;;;;;15.93;9.85;;;;;;;0.13;78.81;101256.72;4999772;28;20662;-82
2021/01/10 06:20:25;;;;;;;15.10;9.73;;;;;;;0.13;78.30;101260.19;5000175;28;20077;-82
2021/01/10 06:22:54;;;;;;;18.20;10.32;;;;;;;0.08;78.73;101259.28;4991943;28;20632;-82
2021/01/10 06:25:23;;;;;;;16.13;9.73;;;;;;;0.03;78.51;101255.75;4997883;28;20050;-82
2021/01/10 06:28:19;;;;;;;16.40;10.05;;;;;;;0.06;78.75;101255.78;4999587;28;20058;-82
2021/01/10 06:31:01;;;;;;;15.27;9.88;;;;;;;0.11;78.82;101264.53;4993525;28;20089;-83
2021/01/10 06:33:32;;;;;;;17.30;10.30;;;;;;;0.14;78.38;101261.94;4999272;28;20057;-82
2021/01/10 06:36:02;;;;;;;14.90;9.45;;;;;;;0.23;77.32;101264.63;4999976;28;20073;-82
2021/01/10 06:38:33;;;;;;;15.63;9.73;;;;;;;0.29;77.74;101274.25;4997846;28;20111;-82
2021/01/10 06:41:51;;;;;;;17.50;10.27;;;;;;;0.34;77.44;101273.41;4998326;28;20133;-82
2021/01/10 06:44:20;;;;;;;16.05;9.57;;;;;;;0.32;77.83;101275.13;4978927;28;20050;-82
2021/01/10 06:46:51;;;;;;;17.70;10.60;;;;;;;0.29;78.13;101279.44;4997499;28;20074;-82
2021/01/10 06:49:19;;;;;;;15.15;9.27;;;;;;;0.27;77.95;101276.81;4996661;28;20047;-81
2021/01/10 06:51:46;;;;;;;20.13;11.23;;;;;;;0.27;77.54;101271.63;4992328;28;20058;-82
2021/01/10 06:54:13;;;;;;;16.38;10.68;;;;;;;0.25;78.08;101275.94;4997290;28;20058;-82
2021/01/10 06:56:47;;;;;;;17.70;11.20;;;;;;;0.25;78.17;101282.88;4999041;28;20141;-82
2021/01/10 06:59:26;;;;;;;18.92;11.15;;;;;;;0.32;77.99;101275.13;4996507;28;20657;-82
2021/01/10 07:01:52;;;;;;;19.20;11.68;;;;;;;0.37;77.45;101276.91;4996124;28;20057;-82
2021/01/10 07:04:23;;;;;;;18.70;12.05;;;;;;;0.33;78.32;101266.44;5000830;28;20049;-82
2021/01/10 07:06:51;;;;;;;19.70;11.43;;;;;;;0.32;78.60;101267.28;4996562;28;20141;-81
2021/01/10 07:09:19;;;;;;;18.95;11.68;;;;;;;0.33;78.89;101265.56;4999139;28;20056;-81
2021/01/10 07:11:49;;;;;;;19.15;11.48;;;;;;;0.32;78.95;101264.69;4997328;28;20061;-81
2021/01/10 07:14:21;;;;;;;17.77;11.73;;;;;;;0.33;79.09;101261.22;4991653;28;20046;-82
2021/01/10 07:16:49;;;;;;;19.15;12.07;;;;;;;0.39;78.83;101264.75;4998635;28;20097;-82
2021/01/10 07:19:16;;;;;;;17.83;11.80;;;;;;;0.42;78.87;101265.66;4996915;28;20141;-82
2021/01/10 07:21:49;;;;;;;17.45;11.45;;;;;;;0.44;79.09;101271.75;4997884;28;20042;-82
2021/01/10 07:24:16;;;;;;;18.33;11.18;;;;;;;0.43;78.91;101275.22;4997726;28;20054;-82
2021/01/10 07:26:52;;;;;;;18.17;11.68;;;;;;;0.41;79.15;101270.84;4999207;28;20046;-81
2021/01/10 07:29:33;;;;;;;19.23;11.68;;;;;;;0.41;79.34;101269.13;5003315;28;20061;-81
2021/01/10 07:32:00;;;;;;;21.95;11.85;;;;;;;0.44;78.63;101263.06;5025520;28;20042;-81
2021/01/10 07:34:28;;;;;;;19.08;11.18;;;;;;;0.45;78.66;101270.03;5018812;28;20054;-82
2021/01/10 07:36:59;;;;;;;19.35;11.23;;;;;;;0.40;78.72;101263.91;5002356;28;20050;-81
2021/01/10 07:39:31;;;;;;;20.00;11.15;;;;;;;0.43;78.62;101267.41;5016335;28;20056;-80
2021/01/10 07:42:17;;;;;;;17.98;10.73;;;;;;;0.41;77.75;101268.25;5023613;28;20058;-80
2021/01/10 07:44:58;;;;;;;18.02;11.50;;;;;;;0.40;78.05;101271.72;5014526;28;20648;-81
2021/01/10 07:47:33;;;;;;;20.30;11.98;;;;;;;0.42;77.79;101275.22;4995562;28;20041;-81
2021/01/10 07:50:12;;;;;;;19.48;11.95;;;;;;;0.40;78.05;101274.31;4997656;28;20050;-82
2021/01/10 07:52:42;;;;;;;20.98;11.57;;;;;;;0.37;78.48;101264.75;4998160;28;20125;-82
2021/01/10 07:55:18;;;;;;;18.23;11.20;;;;;;;0.39;78.57;101268.22;5011106;28;20052;-81
2021/01/10 07:57:58;;;;;;;19.05;11.75;;;;;;;0.34;78.73;101282.94;5011612;28;20047;-82
2021/01/10 08:00:35;;;;;;;18.38;11.63;;;;;;;0.34;78.65;101288.16;4999627;28;20066;-82
2021/01/10 08:03:06;;;;;;;18.45;11.27;;;;;;;0.44;78.36;101282.19;5003718;28;20105;-81
2021/01/10 08:05:39;;;;;;;20.10;12.32;;;;;;;0.55;78.08;101292.69;5006539;28;20094;-81
2021/01/10 08:08:15;;;;;;;19.73;11.27;;;;;;;0.59;78.00;101297.06;5020328;28;20052;-81
2021/01/10 08:10:47;;;;;;;18.23;11.25;;;;;;;0.62;78.40;101300.56;4988742;28;20058;-81
2021/01/10 08:13:26;;;;;;;19.13;11.68;;;;;;;0.69;77.80;101297.13;4985578;28;20056;-81
2021/01/10 08:16:09;;;;;;;19.10;12.10;;;;;;;0.86;77.54;101309.44;4977932;28;20057;-81
2021/01/10 08:18:38;;;;;;;22.52;11.80;;;;;;;0.86;77.11;101299.88;5000221;28;20108;-82
2021/01/10 08:21:10;;;;;;;18.70;12.20;;;;;;;0.82;77.68;101295.50;4985058;28;20096;-82
2021/01/10 08:23:39;;;;;;;20.30;12.55;;;;;;;0.77;77.16;101299.81;4989090;28;20109;-82
2021/01/10 08:26:10;;;;;;;17.30;11.48;;;;;;;0.78;76.63;101309.38;4991652;28;20050;-82
2021/01/10 08:28:42;;;;;;;20.67;12.82;;;;;;;0.82;77.20;101305.91;4984310;28;20066;-82
2021/01/10 08:31:11;;;;;;;18.35;11.40;;;;;;;0.84;76.90;101308.53;4985064;28;20454;-82
2021/01/10 08:33:38;;;;;;;18.73;12.07;;;;;;;0.92;77.14;101305.16;4989881;28;20118;-81
2021/01/10 08:36:18;;;;;;;20.13;12.65;;;;;;;1.04;77.06;101305.22;4991236;28;20055;-82
2021/01/10 08:38:55;;;;;;;18.70;11.80;;;;;;;1.11;75.73;101305.22;5009591;28;20069;-82
2021/01/10 08:41:28;;;;;;;19.73;12.18;;;;;;;1.15;75.76;101302.66;5016404;28;20061;-81
2021/01/10 08:44:02;;;;;;;20.10;12.20;;;;;;;1.17;74.78;101310.50;4999474;28;20078;-82
2021/01/10 08:46:33;;;;;;;18.50;11.30;;;;;;;1.11;75.13;101313.06;5007065;28;20058;-82
2021/01/10 08:49:00;;;;;;;19.45;11.98;;;;;;;1.01;75.21;101318.22;5002702;28;20054;-81
2021/01/10 08:51:43;;;;;;;20.77;12.32;;;;;;;0.99;75.86;101314.72;5008951;28;20038;-82
2021/01/10 08:54:12;;;;;;;19.65;11.88;;;;;;;1.07;76.01;101311.31;5005557;28;20069;-82
2021/01/10 08:56:40;;;;;;;18.38;11.52;;;;;;;1.12;75.28;101312.19;4989091;28;20050;-82
2021/01/10 08:59:07;;;;;;;18.48;11.75;;;;;;;1.23;74.36;101313.16;4989264;28;20057;-82
2021/01/10 09:01:34;;;;;;;19.90;11.77;;;;;;;1.29;74.93;101315.78;4993313;28;20098;-81
2021/01/10 09:04:13;;;;;;;19.50;11.90;;;;;;;1.35;74.02;101315.81;4998711;28;20050;-82
2021/01/10 09:07:06;;;;;;;21.77;12.05;;;;;;;1.48;73.78;101315.00;5001488;28;20050;-80
2021/01/10 09:09:46;;;;;;;20.83;12.43;;;;;;;1.52;73.01;101324.63;4997742;28;20051;-79
2021/01/10 09:12:28;;;;;;;20.63;12.47;;;;;;;1.52;72.33;101328.97;5011049;28;20137;-81
2021/01/10 09:14:58;;;;;;;20.60;12.35;;;;;;;1.42;73.57;101318.47;5025827;28;20840;-81
2021/01/10 09:17:28;;;;;;;21.63;12.27;;;;;;;1.45;73.64;101312.38;5027141;28;20496;-81
2021/01/10 09:20:03;;;;;;;19.70;11.57;;;;;;;1.43;72.78;101324.53;5022323;28;20121;-82
2021/01/10 09:22:34;;;;;;;21.13;12.70;;;;;;;1.48;73.16;101328.06;5018364;28;20054;-81
2021/01/10 09:25:32;;;;;;;20.67;12.75;;;;;;;1.64;72.61;101331.63;5010282;28;20050;-81
2021/01/10 09:28:04;;;;;;;18.90;12.15;;;;;;;1.64;72.41;101327.28;5008592;28;20077;-81
2021/01/10 09:30:31;;;;;;;19.52;12.73;;;;;;;1.70;72.41;101329.03;5009698;28;20042;-82
2021/01/10 09:32:59;;;;;;;19.55;12.10;;;;;;;1.72;71.53;101322.97;4999780;28;20122;-82
2021/01/10 09:35:25;;;;;;;18.85;11.50;;;;;;;1.71;70.91;101325.56;5010166;28;20129;-81
2021/01/10 09:37:53;;;;;;;18.65;12.07;;;;;;;1.65;71.22;101333.38;5006907;28;20097;-81
2021/01/10 09:40:39;;;;;;;16.20;10.07;;;;;;;1.70;70.01;101337.75;5003342;28;20042;-81
2021/01/10 09:43:06;;;;;;;17.33;10.82;;;;;;;1.74;70.26;101338.59;5008607;28;20154;-80
2021/01/10 09:45:35;;;;;;;17.38;11.68;;;;;;;1.82;70.03;101331.69;5020827;28;20493;-82
2021/01/10 09:48:05;;;;;;;17.73;11.57;;;;;;;1.89;69.55;101336.06;4998155;28;20054;-83
2021/01/10 09:50:32;;;;;;;18.23;12.60;;;;;;;1.85;70.45;101338.66;5005702;28;20062;-82
2021/01/10 09:52:59;;;;;;;20.92;12.48;;;;;;;1.75;70.52;101327.31;5000715;28;20508;-82
2021/01/10 09:55:44;;;;;;;18.73;12.50;;;;;;;1.72;71.47;101325.56;5006893;28;20481;-83
2021/01/10 09:58:15;;;;;;;20.27;12.73;;;;;;;1.71;71.32;101331.66;4998090;28;20050;-82
2021/01/10 10:00:57;;;;;;;19.10;12.30;;;;;;;1.73;70.73;101326.44;5000845;28;20073;-82
2021/01/10 10:03:24;;;;;;;18.35;11.80;;;;;;;1.81;71.03;101329.06;4999933;28;20281;-82
2021/01/10 10:05:58;;;;;;;19.58;12.27;;;;;;;1.90;69.86;101322.13;4998094;28;20046;-82
2021/01/10 10:08:26;;;;;;;22.25;12.45;;;;;;;1.97;70.04;101325.66;4997059;28;20070;-82
2021/01/10 10:10:53;;;;;;;20.40;12.57;;;;;;;2.06;69.85;101316.09;4998446;28;20556;-83
2021/01/10 10:13:25;;;;;;;19.33;12.10;;;;;;;2.13;68.99;101303.91;5000124;28;20054;-82
2021/01/10 10:15:56;;;;;;;16.38;10.55;;;;;;;2.17;67.92;101310.91;4998870;28;20089;-82
2021/01/10 10:18:28;;;;;;;16.60;10.90;;;;;;;2.18;68.29;101304.81;4998409;28;20046;-83
2021/01/10 10:20:55;;;;;;;19.38;11.48;;;;;;;2.29;68.92;101305.69;5013313;28;20058;-82
2021/01/10 10:23:22;;;;;;;18.67;12.43;;;;;;;2.34;68.37;101298.72;4998518;28;20046;-81
2021/01/10 10:25:50;;;;;;;19.10;12.25;;;;;;;2.38;68.14;101302.19;4997825;28;20054;-81
2021/01/10 10:28:27;;;;;;;17.02;11.50;;;;;;;2.35;67.88;101292.63;4998047;28;20065;-80
2021/01/10 10:31:44;;;;;;;;;;;;;;;;;;;;;
2021/01/10 10:47:01;;;;;;;18.48;11.45;;;;;;;2.55;67.27;101282.16;5076808;28;21155;-81
2021/01/10 10:49:30;;;;;;;18.20;11.05;;;;;;;2.70;67.58;101278.66;5094920;28;20049;-82
2021/01/10 10:51:58;;;;;;;16.63;11.55;;;;;;;2.73;67.98;101276.06;5082079;28;20054;-81
2021/01/10 10:54:24;;;;;;;19.95;11.30;;;;;;;2.85;66.72;101281.25;5078389;28;20044;-81
2021/01/10 10:56:52;;;;;;;19.50;11.85;;;;;;;2.88;66.47;101281.25;5091096;28;20053;-81
2021/01/10 10:59:18;;;;;;;17.15;11.60;;;;;;;2.88;66.19;101275.16;5072985;28;20057;-81
2021/01/10 11:01:49;;;;;;;16.08;11.07;;;;;;;2.91;66.26;101276.03;5074763;28;20046;-82
2021/01/10 11:04:16;;;;;;;16.17;10.85;;;;;;;2.95;66.72;101271.69;5080222;28;20043;-81
2021/01/10 11:06:42;;;;;;;16.88;11.23;;;;;;;2.94;66.13;101259.47;5085639;28;20045;-81
2021/01/10 11:09:10;;;;;;;17.23;11.68;;;;;;;2.90;66.60;101263.81;5074108;28;20112;-82
2021/01/10 11:11:45;;;;;;;16.58;11.40;;;;;;;2.91;66.60;101273.41;5066864;28;20053;-81
2021/01/10 11:14:16;;;;;;;18.05;11.75;;;;;;;2.91;66.45;101265.56;5072290;28;20083;-81
2021/01/10 11:16:43;;;;;;;18.98;11.73;;;;;;;2.89;65.81;101263.81;5076428;28;20068;-81
2021/01/10 11:19:10;;;;;;;16.52;11.10;;;;;;;2.91;65.48;101265.56;5073827;28;20237;-82
2021/01/10 11:21:43;;;;;;;17.52;10.90;;;;;;;2.99;65.39;101265.56;5075056;28;20129;-82
2021/01/10 11:24:10;;;;;;;16.95;11.38;;;;;;;3.04;67.63;101266.41;5071426;28;20053;-82
2021/01/10 11:26:42;;;;;;;16.25;10.88;;;;;;;3.04;65.12;101264.66;5075195;28;20052;-81
2021/01/10 11:29:09;;;;;;;15.40;10.38;;;;;;;3.05;65.32;101255.06;5068955;28;20049;-81
2021/01/10 11:31:36;;;;;;;17.45;10.18;;;;;;;3.05;64.05;101252.44;5070844;28;20108;-80
2021/01/10 11:34:04;;;;;;;14.20;10.02;;;;;;;3.02;64.06;101248.09;5075237;28;20041;-83
2021/01/10 11:36:32;;;;;;;15.20;10.02;;;;;;;3.02;64.53;101253.31;5062146;28;20059;-84
2021/01/10 11:38:59;;;;;;;14.90;10.25;;;;;;;3.02;64.36;101248.09;5061071;28;20036;-82
2021/01/10 11:41:25;;;;;;;15.88;9.82;;;;;;;3.02;63.55;101249.84;5094028;28;20044;-81
2021/01/10 11:43:53;;;;;;;13.93;9.63;;;;;;;2.98;63.60;101245.50;5060621;28;20048;-83
2021/01/10 11:46:21;;;;;;;13.75;9.60;;;;;;;2.97;64.24;101242.03;5060438;28;20044;-82
2021/01/10 11:48:48;;;;;;;15.30;9.98;;;;;;;2.93;62.80;101232.44;5062817;28;20091;-82
2021/01/10 11:51:16;;;;;;;17.17;10.30;;;;;;;2.87;63.49;101227.19;5053426;28;20072;-82
2021/01/10 11:53:47;;;;;;;13.18;9.20;;;;;;;2.95;62.38;101229.81;5037842;28;20045;-83